Time;durP1;ratioP1;P1;durP2;ratioP2;P2;SDS_P1;SDS_P2;PMS_P1;PMS_P2;Temp;Humidity;BMP_temperature;BMP_pressure;BME280_temperature;BME280_humidity;BME280_pressure;Samples;Min_cycle;Max_cycle;Signal;HPM_P1;HPM_P2
2021/09/04 00:02:31;;;;;;;5.10;4.63;;;16.70;99.90;;;;;;6299249;28;20469;-64
2021/09/04 00:05:35;;;;;;;6.40;5.50;;;16.70;99.90;;;;;;6322624;28;20546;-63
2021/09/04 00:08:38;;;;;;;5.37;4.50;;;16.70;99.90;;;;;;6323802;28;20551;-63
2021/09/04 00:11:42;;;;;;;5.60;5.10;;;16.60;99.90;;;;;;6324146;28;20493;-61
2021/09/04 00:14:46;;;;;;;5.93;4.90;;;16.60;99.90;;;;;;6324089;28;20480;-62
2021/09/04 00:17:49;;;;;;;5.00;4.50;;;16.60;99.90;;;;;;6323721;28;20482;-61
2021/09/04 00:20:53;;;;;;;5.57;5.07;;;16.50;99.90;;;;;;6323812;28;20460;-65
2021/09/04 00:23:56;;;;;;;7.43;5.90;;;16.50;99.90;;;;;;6323983;28;20468;-63
2021/09/04 00:26:59;;;;;;;5.67;5.10;;;16.50;99.90;;;;;;6323691;28;20468;-65
2021/09/04 00:30:04;;;;;;;5.30;4.80;;;16.40;99.90;;;;;;6323282;28;20486;-63
2021/09/04 00:33:07;;;;;;;8.37;4.97;;;16.40;99.90;;;;;;6323453;28;20472;-63
2021/09/04 00:36:10;;;;;;;5.73;5.17;;;16.30;99.90;;;;;;6326555;28;20478;-64
2021/09/04 00:39:13;;;;;;;5.60;5.10;;;16.40;99.90;;;;;;6328036;28;20541;-64
2021/09/04 00:42:19;;;;;;;6.70;6.10;;;16.30;99.90;;;;;;6326447;28;20491;-63
2021/09/04 00:45:23;;;;;;;6.20;5.63;;;16.30;99.90;;;;;;6321984;28;20848;-64
2021/09/04 00:48:26;;;;;;;6.20;5.40;;;16.30;99.90;;;;;;6326194;28;20487;-64
2021/09/04 00:51:49;;;;;;;6.67;6.07;;;16.20;99.90;;;;;;6326462;28;20476;-63
2021/09/04 00:54:52;;;;;;;5.47;4.30;;;16.20;99.90;;;;;;6341694;28;20478;-63
2021/09/04 00:57:56;;;;;;;5.13;4.63;;;16.20;99.90;;;;;;6338627;27;20472;-63
2021/09/04 01:01:00;;;;;;;6.23;5.73;;;16.20;99.90;;;;;;6340040;28;20471;-63
2021/09/04 01:04:04;;;;;;;5.87;5.27;;;16.20;99.90;;;;;;6345743;28;20475;-63
2021/09/04 01:07:07;;;;;;;6.47;4.47;;;16.20;99.90;;;;;;6343649;28;20811;-63
2021/09/04 01:10:12;;;;;;;5.17;4.67;;;16.10;99.90;;;;;;6339659;28;20455;-62
2021/09/04 01:13:15;;;;;;;7.43;5.90;;;16.10;99.90;;;;;;6342014;28;20458;-62
2021/09/04 01:16:20;;;;;;;7.47;6.40;;;16.10;99.90;;;;;;6351406;28;20480;-63
2021/09/04 01:19:23;;;;;;;7.33;6.63;;;16.00;99.90;;;;;;6351454;28;20447;-63
2021/09/04 01:22:31;;;;;;;7.37;6.67;;;15.90;99.90;;;;;;6351217;28;20445;-63
2021/09/04 01:25:34;;;;;;;7.67;6.27;;;16.00;99.90;;;;;;6351353;28;21154;-63
2021/09/04 01:28:39;;;;;;;6.70;6.00;;;15.90;99.90;;;;;;6351510;28;20467;-62
2021/09/04 01:31:43;;;;;;;8.73;6.37;;;16.00;99.90;;;;;;6353084;28;20951;-62
2021/09/04 01:34:46;;;;;;;6.13;5.53;;;16.00;99.90;;;;;;6352587;28;20984;-63
2021/09/04 01:37:49;;;;;;;6.20;5.60;;;16.00;99.90;;;;;;6353838;27;20471;-63
2021/09/04 01:40:52;;;;;;;6.63;5.90;;;15.90;99.90;;;;;;6352566;28;20961;-63
2021/09/04 01:43:57;;;;;;;5.93;5.33;;;15.90;99.90;;;;;;6353309;27;20473;-63
2021/09/04 01:47:00;;;;;;;5.47;4.97;;;15.90;99.90;;;;;;6352285;28;21021;-63
2021/09/04 01:50:06;;;;;;;7.17;5.40;;;15.90;99.90;;;;;;6348299;28;20475;-63
2021/09/04 01:53:09;;;;;;;6.40;5.07;;;15.80;99.90;;;;;;6352624;27;20965;-62
2021/09/04 01:56:12;;;;;;;6.53;5.27;;;15.80;99.90;;;;;;6353063;27;20475;-63
2021/09/04 01:59:17;;;;;;;5.63;5.00;;;15.70;99.90;;;;;;6352754;28;20475;-63
2021/09/04 02:02:20;;;;;;;5.30;4.80;;;15.80;99.90;;;;;;6352152;28;20536;-63
2021/09/04 02:05:23;;;;;;;5.10;4.70;;;15.80;99.90;;;;;;6352774;28;20469;-63
2021/09/04 02:08:27;;;;;;;5.50;5.00;;;15.80;99.90;;;;;;6352441;28;20524;-62
2021/09/04 02:11:30;;;;;;;6.93;4.83;;;15.70;99.90;;;;;;6352457;28;20490;-63
2021/09/04 02:14:34;;;;;;;6.23;4.70;;;15.60;99.90;;;;;;6352159;28;20478;-63
2021/09/04 02:17:38;;;;;;;5.73;5.07;;;15.60;99.90;;;;;;6349107;28;20828;-63
2021/09/04 02:20:41;;;;;;;5.23;4.73;;;15.60;99.90;;;;;;6351520;27;20937;-63
2021/09/04 02:23:46;;;;;;;5.53;4.97;;;15.50;99.90;;;;;;6351980;27;20808;-63
2021/09/04 02:26:49;;;;;;;5.70;4.40;;;15.40;99.90;;;;;;6351917;28;20479;-63
2021/09/04 02:29:53;;;;;;;4.83;4.33;;;15.40;99.90;;;;;;6352179;28;20987;-63
2021/09/04 02:32:57;;;;;;;7.50;4.77;;;15.40;99.90;;;;;;6351549;28;20524;-63
2021/09/04 02:36:00;;;;;;;4.93;4.53;;;15.40;99.90;;;;;;6351600;28;20964;-63
2021/09/04 02:39:04;;;;;;;5.70;4.57;;;15.30;99.90;;;;;;6352027;27;20482;-63
2021/09/04 02:42:07;;;;;;;5.07;4.57;;;15.30;99.90;;;;;;6351173;27;20478;-63
2021/09/04 02:45:12;;;;;;;5.50;4.97;;;15.30;99.90;;;;;;6350934;28;20804;-63
2021/09/04 02:48:15;;;;;;;6.07;5.47;;;15.30;99.90;;;;;;6351172;28;20490;-63
2021/09/04 02:51:18;;;;;;;5.03;4.60;;;15.30;99.90;;;;;;6351177;28;20531;-63
2021/09/04 02:54:21;;;;;;;6.00;4.70;;;15.30;99.90;;;;;;6341461;28;20478;-63
2021/09/04 02:57:24;;;;;;;5.13;4.63;;;15.30;99.90;;;;;;6350732;28;20497;-63
2021/09/04 03:00:29;;;;;;;8.20;4.90;;;15.30;99.90;;;;;;6350819;28;20487;-63
2021/09/04 03:03:32;;;;;;;5.10;4.70;;;15.30;99.90;;;;;;6351453;28;20474;-63
2021/09/04 03:06:36;;;;;;;4.90;4.50;;;15.20;99.90;;;;;;6350528;28;20474;-63
2021/09/04 03:09:39;;;;;;;4.97;4.47;;;15.20;99.90;;;;;;6350880;28;20912;-63
2021/09/04 03:12:42;;;;;;;6.60;5.27;;;15.10;99.90;;;;;;6350125;28;20479;-63
2021/09/04 03:15:46;;;;;;;5.83;4.60;;;15.10;99.90;;;;;;6349843;27;20569;-63
2021/09/04 03:18:50;;;;;;;6.27;5.10;;;15.10;99.90;;;;;;6350151;28;20471;-63
2021/09/04 03:21:53;;;;;;;7.40;4.83;;;15.20;99.90;;;;;;6350393;28;20473;-63
2021/09/04 03:24:56;;;;;;;6.27;5.17;;;15.20;99.90;;;;;;6350639;28;20478;-62
2021/09/04 03:27:59;;;;;;;7.23;5.10;;;15.20;99.90;;;;;;6349898;28;21010;-63
2021/09/04 03:31:04;;;;;;;5.00;4.53;;;15.20;99.90;;;;;;6350735;28;20475;-63
2021/09/04 03:34:07;;;;;;;5.13;4.67;;;15.20;99.90;;;;;;6350568;28;20619;-63
2021/09/04 03:37:10;;;;;;;5.90;5.00;;;15.20;99.90;;;;;;6350593;27;20459;-63
2021/09/04 03:40:13;;;;;;;5.90;5.30;;;15.10;99.90;;;;;;6350261;27;20443;-63
2021/09/04 03:43:17;;;;;;;5.50;4.30;;;15.10;99.90;;;;;;6350658;28;20432;-63
2021/09/04 03:46:21;;;;;;;5.33;4.60;;;15.10;99.90;;;;;;6349508;28;20470;-63
2021/09/04 03:49:24;;;;;;;6.77;4.90;;;15.10;99.90;;;;;;6350098;27;20522;-64
2021/09/04 03:52:28;;;;;;;6.60;4.83;;;15.00;99.90;;;;;;6349749;28;20520;-63
2021/09/04 03:55:31;;;;;;;5.27;4.70;;;14.90;99.90;;;;;;6345571;28;20471;-63
2021/09/04 03:58:34;;;;;;;5.57;5.07;;;14.90;99.90;;;;;;6349926;28;20475;-62
2021/09/04 04:01:38;;;;;;;5.13;4.43;;;14.90;99.90;;;;;;6349564;28;20459;-62
2021/09/04 04:04:42;;;;;;;6.27;5.67;;;14.90;99.90;;;;;;6350102;28;20474;-62
2021/09/04 04:07:45;;;;;;;6.27;4.67;;;14.90;99.90;;;;;;6349823;28;20475;-62
2021/09/04 04:10:48;;;;;;;5.50;4.63;;;14.90;99.90;;;;;;6348853;28;20471;-62
2021/09/04 04:13:51;;;;;;;4.83;4.43;;;14.90;99.90;;;;;;6349497;28;20478;-62
2021/09/04 04:16:56;;;;;;;6.33;5.30;;;14.90;99.90;;;;;;6350055;28;20476;-62
2021/09/04 04:19:59;;;;;;;5.00;4.50;;;14.90;99.90;;;;;;6349490;28;20482;-62
2021/09/04 04:23:02;;;;;;;5.27;4.77;;;14.90;99.90;;;;;;6349667;28;20478;-62
2021/09/04 04:26:05;;;;;;;6.40;5.27;;;14.90;99.90;;;;;;6349149;28;20471;-63
2021/09/04 04:29:08;;;;;;;5.90;5.40;;;14.90;99.90;;;;;;6349343;28;20786;-63
2021/09/04 04:32:13;;;;;;;7.00;5.60;;;14.80;99.90;;;;;;6349117;28;20475;-63
2021/09/04 04:35:16;;;;;;;7.80;5.60;;;14.70;99.90;;;;;;6349366;28;20475;-63
2021/09/04 04:38:20;;;;;;;6.00;4.70;;;14.80;99.90;;;;;;6349623;28;20467;-63
2021/09/04 04:41:23;;;;;;;5.37;4.87;;;14.90;99.90;;;;;;6349429;28;20471;-62
2021/09/04 04:44:26;;;;;;;5.40;4.90;;;14.90;99.90;;;;;;6349406;28;21003;-63
2021/09/04 04:47:32;;;;;;;5.73;5.10;;;14.90;99.90;;;;;;6349040;28;20539;-63
2021/09/04 04:50:35;;;;;;;5.07;4.57;;;14.90;99.90;;;;;;6349174;28;20475;-63
2021/09/04 04:53:39;;;;;;;6.40;4.60;;;14.90;99.90;;;;;;6348898;28;20479;-63
2021/09/04 04:56:42;;;;;;;5.37;4.83;;;14.90;99.90;;;;;;6349509;28;20474;-63
2021/09/04 04:59:45;;;;;;;5.27;4.77;;;14.90;99.90;;;;;;6348741;28;20471;-62
2021/09/04 05:02:50;;;;;;;8.43;6.00;;;15.00;99.90;;;;;;6348952;28;20813;-62
2021/09/04 05:05:53;;;;;;;8.93;5.53;;;15.00;99.90;;;;;;6348929;28;20478;-62
2021/09/04 05:08:56;;;;;;;5.60;5.00;;;15.00;99.90;;;;;;6349155;28;20485;-62
2021/09/04 05:12:00;;;;;;;5.43;4.93;;;15.10;99.90;;;;;;6348597;28;20507;-63
2021/09/04 05:15:03;;;;;;;6.90;5.43;;;15.20;99.90;;;;;;6348841;28;20810;-63
2021/09/04 05:18:08;;;;;;;7.00;5.90;;;15.30;99.90;;;;;;6348738;28;20483;-63
2021/09/04 05:21:12;;;;;;;7.73;5.93;;;15.40;99.90;;;;;;6349620;28;20991;-63
2021/09/04 05:24:15;;;;;;;5.97;5.30;;;15.50;99.90;;;;;;6353579;28;20488;-63
2021/09/04 05:27:18;;;;;;;8.27;5.77;;;15.70;99.90;;;;;;6353186;28;20474;-63
2021/09/04 05:30:21;;;;;;;5.10;4.60;;;15.80;99.90;;;;;;6353202;28;20474;-63
2021/09/04 05:33:25;;;;;;;7.07;4.40;;;15.90;99.90;;;;;;6352812;28;20524;-63
2021/09/04 05:36:28;;;;;;;8.13;6.00;;;16.00;99.90;;;;;;6353248;27;20487;-63
2021/09/04 05:39:32;;;;;;;5.77;5.20;;;16.10;99.90;;;;;;6353014;28;20813;-63
2021/09/04 05:42:35;;;;;;;7.13;6.53;;;16.20;99.90;;;;;;6353234;28;20459;-63
2021/09/04 05:45:38;;;;;;;8.33;6.50;;;16.30;99.90;;;;;;6352358;28;20475;-63
2021/09/04 05:48:42;;;;;;;6.37;5.70;;;16.40;99.90;;;;;;6352779;28;20490;-63
2021/09/04 05:51:45;;;;;;;6.27;5.53;;;16.40;99.90;;;;;;6352529;27;20464;-64
2021/09/04 05:54:49;;;;;;;7.00;6.30;;;16.50;99.90;;;;;;6353078;27;20482;-63
2021/09/04 05:57:52;;;;;;;6.90;6.20;;;16.50;99.90;;;;;;6352143;28;20968;-63
2021/09/04 06:00:55;;;;;;;7.00;5.20;;;16.60;99.90;;;;;;6352695;28;20813;-64
2021/09/04 06:04:00;;;;;;;6.80;5.97;;;16.80;99.90;;;;;;6352346;28;20463;-63
2021/09/04 06:07:03;;;;;;;6.73;6.03;;;16.90;99.90;;;;;;6338584;28;20808;-64
2021/09/04 06:10:07;;;;;;;8.07;7.17;;;17.10;99.90;;;;;;6352445;28;20471;-63
2021/09/04 06:13:10;;;;;;;5.30;4.80;;;17.20;99.90;;;;;;6351844;28;20490;-64
2021/09/04 06:16:13;;;;;;;9.67;6.50;;;17.30;99.90;;;;;;6352448;28;20439;-63
2021/09/04 06:19:19;;;;;;;7.50;6.77;;;17.40;99.90;;;;;;6352060;28;20532;-63
2021/09/04 06:22:22;;;;;;;6.73;6.10;;;17.70;99.90;;;;;;6352291;28;20420;-64
2021/09/04 06:25:25;;;;;;;8.27;7.23;;;18.20;99.90;;;;;;6351585;27;20757;-64
2021/09/04 06:28:29;;;;;;;7.23;6.53;;;19.60;99.00;;;;;;6352150;28;20245;-63
2021/09/04 06:31:32;;;;;;;8.20;6.33;;;21.10;96.30;;;;;;6351740;28;20248;-63
2021/09/04 06:34:37;;;;;;;6.13;5.47;;;22.60;93.60;;;;;;6350875;28;20230;-64
2021/09/04 06:37:40;;;;;;;7.97;7.17;;;23.70;90.40;;;;;;6352139;28;20229;-64
2021/09/04 06:40:43;;;;;;;9.37;7.00;;;24.90;85.00;;;;;;6351579;28;20658;-64
2021/09/04 06:43:46;;;;;;;7.13;6.23;;;25.70;78.40;;;;;;6351663;28;20285;-64
2021/09/04 06:46:49;;;;;;;8.20;7.50;;;26.60;73.80;;;;;;6351501;28;20236;-64
2021/09/04 06:49:54;;;;;;;8.13;7.30;;;27.60;68.20;;;;;;6351359;28;20658;-64
2021/09/04 06:52:58;;;;;;;8.03;7.33;;;27.70;64.60;;;;;;6350859;28;20839;-64
2021/09/04 06:56:01;;;;;;;7.67;6.87;;;28.20;62.60;;;;;;6350839;28;20239;-64
2021/09/04 06:59:04;;;;;;;9.60;7.00;;;28.90;59.40;;;;;;6350712;28;20580;-64
2021/09/04 07:02:07;;;;;;;7.87;7.27;;;29.70;57.80;;;;;;6351318;28;20343;-64
2021/09/04 07:05:12;;;;;;;11.00;7.50;;;31.00;54.70;;;;;;6350760;27;20229;-64
2021/09/04 07:08:15;;;;;;;8.67;7.77;;;32.00;50.70;;;;;;6342087;28;20243;-65
2021/09/04 07:11:19;;;;;;;6.72;6.22;;;32.70;48.90;;;;;;6350599;28;20236;-64
2021/09/04 07:14:22;;;;;;;8.73;7.57;;;33.60;46.70;;;;;;6350693;28;20548;-64
2021/09/04 07:17:25;;;;;;;7.43;6.72;;;34.50;44.10;;;;;;6350582;28;20605;-65
2021/09/04 07:20:32;;;;;;;8.05;7.35;;;35.40;41.80;;;;;;6350843;28;20221;-65
2021/09/04 07:23:36;;;;;;;6.97;6.22;;;36.10;40.20;;;;;;6350361;28;20224;-64
2021/09/04 07:26:39;;;;;;;7.97;7.28;;;36.60;38.30;;;;;;6350249;27;20701;-65
2021/09/04 07:29:42;;;;;;;7.55;6.85;;;37.00;36.70;;;;;;6350352;28;20615;-64
2021/09/04 07:32:46;;;;;;;7.88;6.38;;;37.10;36.10;;;;;;6350227;28;20296;-64
2021/09/04 07:35:51;;;;;;;7.82;7.03;;;37.60;35.10;;;;;;6350300;28;20243;-64
2021/09/04 07:38:54;;;;;;;7.43;6.75;;;38.30;33.70;;;;;;6350131;28;20580;-64
2021/09/04 07:41:57;;;;;;;6.25;5.60;;;38.90;32.80;;;;;;6350310;28;20239;-64
2021/09/04 07:45:00;;;;;;;6.55;5.95;;;39.70;31.60;;;;;;6349120;28;20236;-64
2021/09/04 07:48:05;;;;;;;6.63;6.03;;;40.60;30.50;;;;;;6350251;28;20247;-64
2021/09/04 07:51:09;;;;;;;6.60;6.10;;;41.30;29.60;;;;;;6349937;27;20632;-64
2021/09/04 07:54:12;;;;;;;7.00;6.40;;;42.00;28.80;;;;;;6351163;28;20229;-64
2021/09/04 07:57:16;;;;;;;6.82;5.80;;;42.00;28.40;;;;;;6349721;28;20698;-65
2021/09/04 08:00:19;;;;;;;5.95;5.45;;;42.80;27.50;;;;;;6349666;28;20248;-64
2021/09/04 08:03:22;;;;;;;5.78;5.28;;;43.50;27.10;;;;;;6349380;28;20705;-64
2021/09/04 08:06:27;;;;;;;6.25;5.85;;;44.00;26.60;;;;;;6349697;28;20224;-65
2021/09/04 08:09:30;;;;;;;6.10;5.50;;;43.40;26.40;;;;;;6349451;28;20228;-65
2021/09/04 08:12:33;;;;;;;5.32;4.93;;;42.10;27.00;;;;;;6345492;28;20228;-64
2021/09/04 08:15:37;;;;;;;6.75;6.15;;;41.20;27.90;;;;;;6349358;28;20758;-65
2021/09/04 08:18:40;;;;;;;5.82;5.32;;;41.10;27.70;;;;;;6349418;28;20315;-63
2021/09/04 08:21:45;;;;;;;6.22;5.82;;;41.40;27.80;;;;;;6349584;28;20232;-64
2021/09/04 08:24:48;;;;;;;6.82;6.22;;;43.00;27.10;;;;;;6349188;28;20302;-64
2021/09/04 08:27:51;;;;;;;6.30;5.70;;;44.00;25.90;;;;;;6349069;28;20575;-64
2021/09/04 08:30:54;;;;;;;6.60;6.00;;;45.00;25.00;;;;;;6348714;28;20225;-64
2021/09/04 08:33:57;;;;;;;6.05;5.55;;;45.10;24.50;;;;;;6348388;28;20217;-64
2021/09/04 08:37:02;;;;;;;5.57;5.07;;;44.30;25.20;;;;;;6345818;28;20232;-65
2021/09/04 08:40:07;;;;;;;5.45;5.05;;;44.70;24.90;;;;;;6335780;28;20227;-64
2021/09/04 08:43:12;;;;;;;6.68;6.07;;;45.80;24.50;;;;;;6337200;27;20723;-64
2021/09/04 08:46:19;;;;;;;5.28;4.88;;;45.90;23.80;;;;;;6329173;28;20353;-64
2021/09/04 08:49:22;;;;;;;5.63;5.22;;;46.00;24.70;;;;;;6336496;28;20191;-63
2021/09/04 08:52:28;;;;;;;5.47;5.07;;;45.90;24.50;;;;;;6332469;28;20198;-64
2021/09/04 08:55:32;;;;;;;6.15;5.47;;;47.60;23.60;;;;;;6333419;28;20231;-64
2021/09/04 08:58:35;;;;;;;5.97;5.57;;;48.60;22.80;;;;;;6326521;28;20228;-64
2021/09/04 09:01:44;;;;;;;5.72;5.32;;;49.50;22.10;;;;;;6313375;28;20230;-64
2021/09/04 09:05:00;;;;;;;7.43;5.80;;;50.30;21.50;;;;;;6316663;28;20240;-65
2021/09/04 09:08:05;;;;;;;5.03;4.63;;;51.40;20.90;;;;;;6323328;28;20239;-64
2021/09/04 09:11:09;;;;;;;4.78;4.47;;;51.50;20.40;;;;;;6303080;28;20229;-64
2021/09/04 09:14:13;;;;;;;5.05;4.60;;;51.80;19.40;;;;;;6302721;28;20233;-64
2021/09/04 09:17:16;;;;;;;5.30;4.90;;;52.30;19.50;;;;;;6299554;28;20237;-64
2021/09/04 09:20:24;;;;;;;5.00;4.70;;;53.00;18.90;;;;;;6334840;28;20236;-65
2021/09/04 09:23:29;;;;;;;4.35;4.05;;;53.20;18.20;;;;;;6326763;28;20691;-69
2021/09/04 09:26:33;;;;;;;5.00;4.70;;;52.90;17.90;;;;;;6327833;28;20248;-65
2021/09/04 09:29:37;;;;;;;4.65;4.35;;;52.40;17.90;;;;;;6352679;28;20234;-65
2021/09/04 09:32:53;;;;;;;4.13;3.83;;;52.40;18.00;;;;;;6328516;28;20230;-64
2021/09/04 09:35:58;;;;;;;4.30;3.90;;;52.40;17.20;;;;;;6337200;28;20231;-64
2021/09/04 09:39:12;;;;;;;4.63;4.22;;;51.10;17.60;;;;;;6353087;28;20232;-64
2021/09/04 09:42:15;;;;;;;4.57;4.18;;;49.50;18.90;;;;;;6346049;28;20222;-64
2021/09/04 09:45:19;;;;;;;4.75;4.43;;;48.30;17.90;;;;;;6339067;27;20315;-64
2021/09/04 09:48:23;;;;;;;4.93;4.53;;;48.30;19.90;;;;;;6339122;28;20604;-63
2021/09/04 09:51:26;;;;;;;4.97;4.57;;;47.50;19.50;;;;;;6334965;28;20226;-65
2021/09/04 09:54:34;;;;;;;4.18;3.78;;;45.90;20.50;;;;;;6337636;28;20328;-65
2021/09/04 09:57:37;;;;;;;4.93;4.40;;;44.20;20.90;;;;;;6335758;28;20226;-65
2021/09/04 10:00:41;;;;;;;4.82;4.53;;;42.70;22.10;;;;;;6338541;28;20230;-65
2021/09/04 10:03:45;;;;;;;5.90;5.05;;;41.10;23.30;;;;;;6340658;28;20232;-65
2021/09/04 10:06:49;;;;;;;5.72;5.18;;;39.80;24.50;;;;;;6334697;28;20222;-65
2021/09/04 10:09:53;;;;;;;6.28;5.78;;;38.40;25.70;;;;;;6322608;28;20236;-65
2021/09/04 10:12:57;;;;;;;6.47;4.63;;;37.20;26.90;;;;;;6310161;28;20230;-65
2021/09/04 10:16:01;;;;;;;4.57;4.18;;;36.00;27.30;;;;;;6324516;28;20231;-65
2021/09/04 10:19:05;;;;;;;5.07;4.57;;;34.60;28.90;;;;;;6312844;28;20234;-64
2021/09/04 10:22:09;;;;;;;5.57;5.18;;;33.50;31.40;;;;;;6301244;28;20233;-64
2021/09/04 10:25:19;;;;;;;4.93;4.20;;;32.80;31.80;;;;;;6301075;28;20218;-64
2021/09/04 10:28:22;;;;;;;6.97;5.47;;;31.80;34.10;;;;;;6320867;28;20218;-63
2021/09/04 10:31:45;;;;;;;5.40;5.00;;;31.20;35.00;;;;;;6326405;28;20216;-64
2021/09/04 10:35:02;;;;;;;7.27;4.70;;;30.00;37.10;;;;;;6321356;28;20556;-63
2021/09/04 10:38:10;;;;;;;5.93;5.33;;;29.40;37.80;;;;;;6300882;28;20259;-64
2021/09/04 10:41:27;;;;;;;5.67;5.17;;;28.70;39.50;;;;;;6300520;28;20237;-64
2021/09/04 10:44:34;;;;;;;5.10;4.60;;;28.70;39.30;;;;;;6312422;28;20691;-63
2021/09/04 10:47:47;;;;;;;6.37;4.70;;;29.00;38.80;;;;;;6325897;28;20245;-63
2021/09/04 10:51:02;;;;;;;5.17;4.53;;;29.10;38.40;;;;;;6326268;28;20226;-64
2021/09/04 10:54:06;;;;;;;5.10;4.70;;;29.00;38.00;;;;;;6325821;28;20304;-64
2021/09/04 10:57:18;;;;;;;5.40;5.00;;;29.00;38.10;;;;;;6325540;28;20241;-63
2021/09/04 11:00:26;;;;;;;5.60;5.10;;;29.00;39.00;;;;;;6325898;28;20676;-64
2021/09/04 11:03:42;;;;;;;5.57;5.17;;;28.80;39.60;;;;;;6325230;28;20241;-63
2021/09/04 11:06:49;;;;;;;5.00;4.53;;;28.40;40.40;;;;;;6325401;28;20232;-63
2021/09/04 11:09:55;;;;;;;5.60;4.90;;;28.50;40.10;;;;;;6302830;28;20234;-64
2021/09/04 11:13:27;;;;;;;4.77;4.30;;;28.70;40.00;;;;;;6325067;28;20226;-64
2021/09/04 11:16:50;;;;;;;5.40;4.90;;;29.10;41.20;;;;;;6324618;28;20232;-64
2021/09/04 11:19:54;;;;;;;5.00;4.60;;;29.10;39.50;;;;;;6301741;28;20702;-62
2021/09/04 11:22:58;;;;;;;5.50;5.00;;;29.30;39.10;;;;;;6295237;28;20230;-61
2021/09/04 11:26:04;;;;;;;5.57;5.00;;;29.10;39.30;;;;;;6297757;28;20229;-61
2021/09/04 11:29:09;;;;;;;4.73;4.23;;;28.90;39.70;;;;;;6297307;28;20703;-61
2021/09/04 11:32:14;;;;;;;5.03;4.63;;;28.30;41.00;;;;;;6297747;28;20230;-61
2021/09/04 11:35:18;;;;;;;5.13;4.73;;;28.50;40.30;;;;;;6297058;28;20237;-61
2021/09/04 11:38:22;;;;;;;5.70;5.20;;;28.60;40.30;;;;;;6297606;28;20580;-61
2021/09/04 11:41:26;;;;;;;6.33;5.73;;;28.70;40.10;;;;;;6299589;28;20234;-62
2021/09/04 11:44:30;;;;;;;5.10;4.70;;;28.90;39.90;;;;;;6299496;28;20226;-62
2021/09/04 11:47:36;;;;;;;5.80;4.90;;;28.90;40.00;;;;;;6299238;28;20238;-61
2021/09/04 11:50:40;;;;;;;5.70;5.20;;;28.80;40.50;;;;;;6299362;28;20241;-63
2021/09/04 11:53:44;;;;;;;7.70;4.60;;;28.50;41.80;;;;;;6299232;28;20236;-63
2021/09/04 11:56:47;;;;;;;5.53;4.97;;;28.40;40.60;;;;;;6299057;28;20233;-68
2021/09/04 12:00:03;;;;;;;5.93;5.33;;;28.50;40.60;;;;;;6298855;28;20237;-61
2021/09/04 12:03:08;;;;;;;5.40;4.37;;;28.50;41.10;;;;;;6315754;28;20722;-62
2021/09/04 12:06:12;;;;;;;5.97;5.47;;;28.90;41.00;;;;;;6324286;28;20229;-62
2021/09/04 12:09:16;;;;;;;5.67;5.13;;;28.60;40.70;;;;;;6306906;28;20230;-61
2021/09/04 12:12:19;;;;;;;6.33;5.83;;;28.20;42.50;;;;;;6318112;28;20233;-63
2021/09/04 12:15:25;;;;;;;5.73;5.13;;;28.10;42.70;;;;;;6321789;28;20228;-62
2021/09/04 12:18:31;;;;;;;6.17;5.57;;;28.40;42.30;;;;;;6321444;28;20237;-62
2021/09/04 12:21:36;;;;;;;5.77;5.27;;;28.50;41.60;;;;;;6321585;28;20230;-62
2021/09/04 12:24:39;;;;;;;7.00;5.30;;;28.80;41.90;;;;;;6321616;28;20236;-61
2021/09/04 12:27:45;;;;;;;5.80;5.30;;;29.10;41.00;;;;;;6321507;28;20251;-61
2021/09/04 12:31:01;;;;;;;5.50;5.00;;;29.50;40.40;;;;;;6313644;28;20236;-61
2021/09/04 12:34:05;;;;;;;6.23;5.63;;;29.40;40.60;;;;;;6323093;28;20232;-62
2021/09/04 12:37:26;;;;;;;5.17;4.67;;;29.20;40.90;;;;;;6323476;28;20226;-62
2021/09/04 12:40:30;;;;;;;5.67;5.17;;;29.10;40.90;;;;;;6323658;28;20225;-62
2021/09/04 12:43:56;;;;;;;6.00;5.50;;;28.90;41.30;;;;;;6323724;28;20236;-61
2021/09/04 12:47:02;;;;;;;5.80;5.30;;;28.70;41.40;;;;;;6323740;28;20237;-62
2021/09/04 12:50:06;;;;;;;6.07;5.43;;;28.70;41.50;;;;;;6324168;28;20241;-62
2021/09/04 12:53:09;;;;;;;5.97;5.37;;;28.70;42.00;;;;;;6334031;28;20225;-61
2021/09/04 12:56:34;;;;;;;6.10;5.50;;;28.60;42.10;;;;;;6343112;28;20231;-65
2021/09/04 12:59:45;;;;;;;6.60;6.03;;;28.50;42.10;;;;;;6338093;28;20241;-62
2021/09/04 13:02:50;;;;;;;6.00;5.50;;;28.50;42.10;;;;;;6323121;28;20687;-61
2021/09/04 13:05:53;;;;;;;6.07;5.47;;;28.20;42.00;;;;;;6341884;28;20229;-62
2021/09/04 13:08:56;;;;;;;5.67;5.27;;;28.30;42.20;;;;;;6333807;28;20221;-62
2021/09/04 13:11:59;;;;;;;6.00;5.43;;;28.40;42.00;;;;;;6337671;28;20228;-62
2021/09/04 13:15:03;;;;;;;5.50;5.10;;;28.30;42.10;;;;;;6323176;28;20225;-62
2021/09/04 13:18:08;;;;;;;6.23;5.67;;;28.20;42.50;;;;;;6336389;28;20218;-61
2021/09/04 13:21:11;;;;;;;5.53;5.13;;;28.00;42.70;;;;;;6329087;28;20229;-62
2021/09/04 13:24:14;;;;;;;5.67;5.10;;;27.70;43.20;;;;;;6334358;28;20689;-62
2021/09/04 13:27:17;;;;;;;6.90;5.10;;;27.80;43.50;;;;;;6333560;28;20229;-62
2021/09/04 13:30:21;;;;;;;6.03;5.53;;;27.80;43.50;;;;;;6335676;28;20217;-62
2021/09/04 13:33:25;;;;;;;5.20;4.80;;;27.80;43.40;;;;;;6334349;28;20236;-62
2021/09/04 13:36:29;;;;;;;5.50;5.07;;;27.80;43.10;;;;;;6348344;28;20564;-61
2021/09/04 13:39:32;;;;;;;5.77;5.27;;;27.60;43.60;;;;;;6348538;28;20247;-61
2021/09/04 13:42:40;;;;;;;5.80;5.13;;;27.30;44.80;;;;;;6350130;28;20226;-61
2021/09/04 13:45:43;;;;;;;6.37;4.80;;;27.10;45.00;;;;;;6352509;28;20256;-61
2021/09/04 13:48:48;;;;;;;5.90;5.40;;;27.20;45.00;;;;;;6352447;28;20382;-61
2021/09/04 13:51:51;;;;;;;6.43;4.30;;;27.30;45.10;;;;;;6352679;28;20225;-61
2021/09/04 13:54:54;;;;;;;6.23;5.63;;;27.40;44.70;;;;;;6352900;28;20311;-61
2021/09/04 13:57:57;;;;;;;5.17;4.77;;;27.60;44.50;;;;;;6352327;28;20221;-62
2021/09/04 14:01:00;;;;;;;5.67;5.17;;;27.60;43.80;;;;;;6352680;28;20252;-61
2021/09/04 14:04:05;;;;;;;5.33;4.93;;;27.70;43.80;;;;;;6334913;28;20221;-61
2021/09/04 14:07:09;;;;;;;5.63;5.00;;;27.70;43.80;;;;;;6341546;27;20659;-61
2021/09/04 14:10:16;;;;;;;5.77;5.27;;;27.70;43.90;;;;;;6304566;28;20528;-61
2021/09/04 14:13:19;;;;;;;5.97;5.47;;;27.70;44.10;;;;;;6326631;28;20216;-62
2021/09/04 14:16:23;;;;;;;5.53;5.03;;;27.40;44.10;;;;;;6326538;28;20220;-62
2021/09/04 14:19:27;;;;;;;5.83;5.27;;;27.30;44.80;;;;;;6327025;28;20239;-63
2021/09/04 14:22:30;;;;;;;5.30;4.80;;;27.10;44.70;;;;;;6326525;28;20198;-62
2021/09/04 14:25:34;;;;;;;5.60;5.00;;;27.00;45.60;;;;;;6326562;28;20670;-63
2021/09/04 14:28:37;;;;;;;5.40;4.93;;;26.80;45.50;;;;;;6326244;28;20679;-62
2021/09/04 14:31:40;;;;;;;6.30;5.70;;;26.60;46.00;;;;;;6326646;28;20225;-64
2021/09/04 14:34:45;;;;;;;5.27;4.77;;;26.40;46.40;;;;;;6312189;28;20221;-63
2021/09/04 14:37:48;;;;;;;5.30;4.80;;;26.30;46.90;;;;;;6311081;28;20691;-63
2021/09/04 14:40:52;;;;;;;6.30;5.53;;;26.20;47.20;;;;;;6325901;28;20241;-63
2021/09/04 14:43:55;;;;;;;5.60;5.03;;;26.20;47.50;;;;;;6301150;28;20225;-63
2021/09/04 14:46:58;;;;;;;5.53;5.10;;;26.10;47.90;;;;;;6300773;28;20623;-63
2021/09/04 14:50:03;;;;;;;5.33;4.63;;;26.10;47.70;;;;;;6306042;28;20226;-63
2021/09/04 14:53:06;;;;;;;6.20;4.80;;;26.10;47.50;;;;;;6325446;28;20234;-63
2021/09/04 14:56:09;;;;;;;5.40;4.93;;;25.90;47.80;;;;;;6325124;28;20237;-63
2021/09/04 14:59:12;;;;;;;6.13;5.53;;;25.80;48.30;;;;;;6325344;28;20233;-64
2021/09/04 15:02:15;;;;;;;5.23;4.83;;;25.70;48.20;;;;;;6325570;28;20691;-63
2021/09/04 15:05:21;;;;;;;5.40;5.00;;;25.70;48.30;;;;;;6325114;28;20673;-64
2021/09/04 15:08:25;;;;;;;5.77;4.33;;;25.80;48.40;;;;;;6318906;28;20241;-63
2021/09/04 15:11:28;;;;;;;6.57;5.97;;;25.80;48.30;;;;;;6325192;28;20236;-64
2021/09/04 15:14:31;;;;;;;5.17;4.50;;;25.80;48.20;;;;;;6325035;28;20240;-64
2021/09/04 15:17:35;;;;;;;6.40;5.40;;;25.70;48.60;;;;;;6325107;28;20221;-64
2021/09/04 15:20:39;;;;;;;6.60;5.33;;;25.90;49.00;;;;;;6325051;28;20240;-64
2021/09/04 15:23:43;;;;;;;4.70;4.20;;;26.00;48.40;;;;;;6325873;28;20233;-64
2021/09/04 15:26:46;;;;;;;7.17;4.40;;;26.00;48.10;;;;;;6325019;28;20319;-65
2021/09/04 15:29:49;;;;;;;5.90;5.40;;;26.00;47.90;;;;;;6324950;28;20225;-64
2021/09/04 15:32:52;;;;;;;5.27;4.83;;;26.00;48.20;;;;;;6324819;28;20236;-64
2021/09/04 15:35:57;;;;;;;5.77;5.27;;;25.90;48.10;;;;;;6324589;28;20652;-64
2021/09/04 15:39:00;;;;;;;5.40;4.97;;;25.50;48.70;;;;;;6324348;28;20294;-64
2021/09/04 15:42:04;;;;;;;6.13;5.63;;;25.60;48.90;;;;;;6324418;28;20710;-64
2021/09/04 15:45:08;;;;;;;5.10;4.70;;;25.70;48.70;;;;;;6324318;28;20264;-66
2021/09/04 15:48:13;;;;;;;5.97;5.37;;;25.80;48.10;;;;;;6324634;28;20240;-63
2021/09/04 15:51:18;;;;;;;5.60;5.10;;;25.70;48.60;;;;;;6324326;28;20233;-63
2021/09/04 15:54:21;;;;;;;5.33;4.83;;;25.70;48.70;;;;;;6324575;28;20229;-63
2021/09/04 15:57:24;;;;;;;5.83;5.33;;;25.80;48.70;;;;;;6323897;28;20225;-64
2021/09/04 16:00:28;;;;;;;5.50;5.00;;;25.90;48.60;;;;;;6323994;28;20571;-64
2021/09/04 16:03:31;;;;;;;4.83;4.43;;;25.90;48.50;;;;;;6324056;28;20764;-63